Time;durP1;ratioP1;P1;durP2;ratioP2;P2;SDS_P1;SDS_P2;PMS_P1;PMS_P2;Temp;Humidity;BMP_temperature;BMP_pressure;BME280_temperature;BME280_humidity;BME280_pressure;Samples;Min_cycle;Max_cycle;Signal;HPM_P1;HPM_P2
2021/05/27 00:00:32;;;;;;;6.10;4.40;;;15.40;59.30;;;;;;1479185;40;20033;-59
2021/05/27 00:01:53;;;;;;;4.95;4.40;;;15.40;59.30;;;;;;1479978;40;20057;-59
2021/05/27 00:03:14;;;;;;;5.00;4.50;;;15.40;59.30;;;;;;1479560;40;20129;-59
2021/05/27 00:04:35;;;;;;;5.15;4.65;;;15.40;59.30;;;;;;1479537;40;20044;-59
2021/05/27 00:05:56;;;;;;;5.20;4.38;;;15.40;59.30;;;;;;1481511;40;20024;-59
2021/05/27 00:07:17;;;;;;;5.15;4.25;;;15.40;59.30;;;;;;1481766;40;20110;-59
2021/05/27 00:08:38;;;;;;;5.68;4.20;;;15.40;59.40;;;;;;1482956;40;20032;-59
2021/05/27 00:09:59;;;;;;;5.32;4.72;;;15.40;59.40;;;;;;1480285;40;20316;-59
2021/05/27 00:11:20;;;;;;;5.63;4.53;;;15.40;59.50;;;;;;1479614;40;20041;-60
2021/05/27 00:12:41;;;;;;;4.93;4.53;;;15.40;59.50;;;;;;1478909;40;20328;-59
2021/05/27 00:14:02;;;;;;;6.30;4.53;;;15.40;59.50;;;;;;1479760;40;20366;-59
2021/05/27 00:15:26;;;;;;;4.97;4.30;;;15.40;59.40;;;;;;1481218;40;20041;-59
2021/05/27 00:16:47;;;;;;;5.45;4.95;;;15.40;59.50;;;;;;1480869;40;20045;-59
2021/05/27 00:18:09;;;;;;;5.47;4.97;;;15.40;59.40;;;;;;1480866;40;20281;-59
2021/05/27 00:19:30;;;;;;;5.82;4.75;;;15.40;59.90;;;;;;1480473;40;20055;-59
2021/05/27 00:20:51;;;;;;;5.40;4.85;;;15.40;59.40;;;;;;1481530;40;20024;-59
2021/05/27 00:22:12;;;;;;;5.78;4.95;;;15.40;59.40;;;;;;1481050;40;20024;-59
2021/05/27 00:23:32;;;;;;;6.15;5.55;;;15.40;59.40;;;;;;1479200;40;20045;-59
2021/05/27 00:24:53;;;;;;;5.95;5.25;;;15.40;59.50;;;;;;1478222;40;20565;-59
2021/05/27 00:26:15;;;;;;;7.20;5.35;;;15.40;59.50;;;;;;1481511;40;20040;-59
2021/05/27 00:27:36;;;;;;;7.10;5.78;;;15.40;59.50;;;;;;1478272;40;20035;-59
2021/05/27 00:28:57;;;;;;;6.15;5.55;;;15.40;59.50;;;;;;1480421;40;20226;-59
2021/05/27 00:30:19;;;;;;;8.05;5.80;;;15.40;59.50;;;;;;1481166;40;20040;-59
2021/05/27 00:31:40;;;;;;;7.43;6.25;;;15.40;59.50;;;;;;1482582;40;20048;-59
2021/05/27 00:33:01;;;;;;;8.43;5.50;;;15.40;59.50;;;;;;1478884;40;20033;-60
2021/05/27 00:34:22;;;;;;;7.05;5.88;;;15.40;59.50;;;;;;1479287;40;20030;-60
2021/05/27 00:35:43;;;;;;;7.10;6.03;;;15.40;59.50;;;;;;1479817;40;20037;-60
2021/05/27 00:37:04;;;;;;;7.38;5.97;;;15.40;59.60;;;;;;1480442;40;20029;-60
2021/05/27 00:38:25;;;;;;;6.82;5.63;;;15.40;59.60;;;;;;1481677;40;20040;-59
2021/05/27 00:39:46;;;;;;;6.95;5.82;;;15.40;59.60;;;;;;1479283;40;20160;-59
2021/05/27 00:41:07;;;;;;;7.80;6.15;;;15.40;59.60;;;;;;1479477;40;20029;-60
2021/05/27 00:42:28;;;;;;;8.43;5.45;;;15.40;59.60;;;;;;1478136;40;20025;-60
2021/05/27 00:43:48;;;;;;;7.00;5.75;;;15.40;59.60;;;;;;1480670;40;20358;-59
2021/05/27 00:45:12;;;;;;;6.80;5.82;;;15.40;59.60;;;;;;1481237;40;20117;-59
2021/05/27 00:46:33;;;;;;;5.90;5.30;;;15.40;59.60;;;;;;1479303;40;20052;-59
2021/05/27 00:47:54;;;;;;;7.75;5.70;;;15.40;59.60;;;;;;1478413;40;20025;-59
2021/05/27 00:49:16;;;;;;;6.45;5.13;;;15.40;59.60;;;;;;1479772;40;20033;-59
2021/05/27 00:50:37;;;;;;;5.28;4.75;;;15.40;59.60;;;;;;1479490;40;20354;-59
2021/05/27 00:51:57;;;;;;;6.03;5.07;;;15.40;59.50;;;;;;1481608;40;20025;-60
2021/05/27 00:53:18;;;;;;;9.07;5.47;;;15.40;59.60;;;;;;1480990;40;20046;-59
2021/05/27 00:54:39;;;;;;;7.43;5.20;;;15.40;59.60;;;;;;1480553;40;20021;-59
2021/05/27 00:56:00;;;;;;;5.70;4.88;;;15.40;59.60;;;;;;1480368;40;20033;-59
2021/05/27 00:57:34;;;;;;;5.65;4.80;;;15.40;59.60;;;;;;1479442;40;20037;-59
2021/05/27 00:58:55;;;;;;;5.60;4.95;;;15.40;59.70;;;;;;1480705;40;20055;-59
2021/05/27 01:00:20;;;;;;;6.22;4.88;;;15.30;59.40;;;;;;1481617;40;20128;-59
2021/05/27 01:01:42;;;;;;;7.47;5.45;;;15.30;59.50;;;;;;1479428;40;20025;-59
2021/05/27 01:03:03;;;;;;;7.28;5.60;;;15.30;59.40;;;;;;1479872;40;20132;-59
2021/05/27 01:04:24;;;;;;;8.48;5.65;;;15.30;59.40;;;;;;1478748;40;20080;-59
2021/05/27 01:05:45;;;;;;;6.07;5.25;;;15.30;59.40;;;;;;1480571;40;20033;-59
2021/05/27 01:07:06;;;;;;;7.68;5.28;;;15.30;59.50;;;;;;1480298;40;20091;-59
2021/05/27 01:08:29;;;;;;;6.00;5.40;;;15.30;59.50;;;;;;1480461;40;20044;-59
2021/05/27 01:09:50;;;;;;;6.60;5.45;;;15.30;59.60;;;;;;1480195;40;20048;-60
2021/05/27 01:11:11;;;;;;;5.88;5.38;;;15.30;59.60;;;;;;1477726;40;20034;-59
2021/05/27 01:12:32;;;;;;;8.85;5.07;;;15.30;59.60;;;;;;1477101;40;20025;-59
2021/05/27 01:13:53;;;;;;;7.28;5.28;;;15.30;59.60;;;;;;1479916;40;20044;-60
2021/05/27 01:15:34;;;;;;;6.75;5.35;;;15.30;59.70;;;;;;1480655;40;20032;-59
2021/05/27 01:16:55;;;;;;;5.57;5.05;;;15.30;59.70;;;;;;1477250;40;20485;-59
2021/05/27 01:18:19;;;;;;;7.45;5.78;;;15.20;59.60;;;;;;1479738;40;20026;-60
2021/05/27 01:19:39;;;;;;;8.02;6.25;;;15.20;59.60;;;;;;1478808;40;20077;-60
2021/05/27 01:21:00;;;;;;;8.05;5.03;;;15.20;59.70;;;;;;1480965;40;20040;-59
2021/05/27 01:22:22;;;;;;;5.63;4.22;;;15.20;59.60;;;;;;1481141;40;20017;-60
2021/05/27 01:23:43;;;;;;;6.22;4.55;;;15.20;59.60;;;;;;1481780;40;20366;-59
2021/05/27 01:25:07;;;;;;;5.47;4.95;;;15.20;59.70;;;;;;1481135;40;20040;-59
2021/05/27 01:26:27;;;;;;;5.07;4.65;;;15.20;59.70;;;;;;1480143;40;20040;-59
2021/05/27 01:27:48;;;;;;;5.20;4.70;;;15.20;59.70;;;;;;1478518;40;20134;-60
2021/05/27 01:29:09;;;;;;;7.72;4.90;;;15.20;59.70;;;;;;1479352;40;20040;-59
2021/05/27 01:30:30;;;;;;;5.70;4.80;;;15.20;59.80;;;;;;1480698;40;20036;-60
2021/05/27 01:31:51;;;;;;;7.22;4.68;;;15.20;59.80;;;;;;1478407;40;20033;-59
2021/05/27 01:33:13;;;;;;;5.07;4.63;;;15.20;59.80;;;;;;1478864;40;20041;-59
2021/05/27 01:34:35;;;;;;;5.70;4.50;;;15.20;59.90;;;;;;1478522;40;20467;-59
2021/05/27 01:35:57;;;;;;;8.02;5.13;;;15.20;59.90;;;;;;1482420;40;20039;-59
2021/05/27 01:37:18;;;;;;;5.80;4.95;;;15.20;59.90;;;;;;1481341;40;20033;-59
2021/05/27 01:38:39;;;;;;;6.22;4.75;;;15.10;59.80;;;;;;1480788;40;20084;-59
2021/05/27 01:40:01;;;;;;;5.68;5.07;;;15.20;59.90;;;;;;1480448;40;20033;-59
2021/05/27 01:41:22;;;;;;;6.75;5.15;;;15.10;59.90;;;;;;1480005;40;20090;-59
2021/05/27 01:42:43;;;;;;;6.60;5.40;;;15.10;59.90;;;;;;1479680;40;20029;-59
2021/05/27 01:44:04;;;;;;;6.70;5.05;;;15.10;60.00;;;;;;1481162;40;20090;-59
2021/05/27 01:45:25;;;;;;;4.93;4.38;;;15.20;60.00;;;;;;1479199;40;20021;-59
2021/05/27 01:46:46;;;;;;;4.93;4.43;;;15.10;60.00;;;;;;1481548;40;20036;-59
2021/05/27 01:48:07;;;;;;;5.82;4.85;;;15.10;60.10;;;;;;1479303;40;20095;-59
2021/05/27 01:49:28;;;;;;;6.03;4.90;;;15.10;60.10;;;;;;1478720;40;20352;-59
2021/05/27 01:50:49;;;;;;;5.15;4.63;;;15.10;60.10;;;;;;1479388;40;20130;-59
2021/05/27 01:52:10;;;;;;;7.63;5.30;;;15.10;60.20;;;;;;1481495;40;20029;-59
2021/05/27 01:53:31;;;;;;;5.13;4.68;;;15.10;60.20;;;;;;1479005;40;20057;-59
2021/05/27 01:54:52;;;;;;;5.70;5.13;;;15.10;60.30;;;;;;1478667;40;20068;-59
2021/05/27 01:56:13;;;;;;;6.18;5.18;;;15.20;60.40;;;;;;1480784;40;20057;-59
2021/05/27 01:57:34;;;;;;;7.35;5.47;;;15.10;60.30;;;;;;1478409;40;20029;-59
2021/05/27 01:59:04;;;;;;;6.20;5.38;;;15.10;60.30;;;;;;1478126;40;20021;-59
2021/05/27 02:00:28;;;;;;;5.72;5.13;;;15.10;60.60;;;;;;1479288;40;20118;-59
2021/05/27 02:01:49;;;;;;;6.85;5.32;;;15.10;60.50;;;;;;1478707;40;20077;-59
2021/05/27 02:03:10;;;;;;;5.78;5.18;;;15.10;60.40;;;;;;1480530;40;20095;-59
2021/05/27 02:04:31;;;;;;;7.22;5.07;;;15.10;60.50;;;;;;1479422;40;20025;-59
2021/05/27 02:05:52;;;;;;;5.95;5.40;;;15.20;60.60;;;;;;1479491;40;20036;-59
2021/05/27 02:07:14;;;;;;;8.20;6.25;;;15.10;60.60;;;;;;1480237;40;20040;-59
2021/05/27 02:08:35;;;;;;;7.78;6.10;;;15.10;60.60;;;;;;1480678;40;20032;-59
2021/05/27 02:09:56;;;;;;;7.53;5.30;;;15.10;60.60;;;;;;1479613;40;20242;-59
2021/05/27 02:11:16;;;;;;;8.82;6.05;;;15.10;60.60;;;;;;1480912;40;20047;-59
2021/05/27 02:12:38;;;;;;;8.77;6.55;;;15.10;60.70;;;;;;1477727;40;20032;-60
2021/05/27 02:13:59;;;;;;;7.03;5.72;;;15.20;60.80;;;;;;1479620;40;20037;-59
2021/05/27 02:15:20;;;;;;;8.52;5.95;;;15.10;60.80;;;;;;1480123;40;20094;-59
2021/05/27 02:16:43;;;;;;;6.88;5.40;;;15.10;60.70;;;;;;1479398;40;20025;-59
2021/05/27 02:18:03;;;;;;;6.75;5.63;;;15.10;60.80;;;;;;1479876;40;20039;-59
2021/05/27 02:19:25;;;;;;;6.72;5.72;;;15.10;60.70;;;;;;1481071;40;20044;-59
2021/05/27 02:20:45;;;;;;;6.22;5.53;;;15.10;60.80;;;;;;1481808;40;20037;-59
2021/05/27 02:22:07;;;;;;;6.95;6.00;;;15.10;60.80;;;;;;1480286;40;20111;-59
2021/05/27 02:23:28;;;;;;;9.23;6.32;;;15.10;60.80;;;;;;1478704;40;20033;-59
2021/05/27 02:24:48;;;;;;;7.55;6.10;;;15.10;60.90;;;;;;1478412;40;20094;-59
2021/05/27 02:26:09;;;;;;;9.73;6.30;;;15.10;60.90;;;;;;1480788;40;20040;-59
2021/05/27 02:27:30;;;;;;;8.38;6.97;;;15.10;60.90;;;;;;1478493;40;20037;-59
2021/05/27 02:28:51;;;;;;;6.80;6.13;;;15.10;60.90;;;;;;1480111;40;20378;-59
2021/05/27 02:30:13;;;;;;;7.18;6.47;;;15.10;61.00;;;;;;1481235;40;20032;-60
2021/05/27 02:31:34;;;;;;;8.98;7.00;;;15.20;61.00;;;;;;1480141;40;20048;-59
2021/05/27 02:32:55;;;;;;;7.15;6.38;;;15.10;61.00;;;;;;1478679;40;20040;-59
2021/05/27 02:34:17;;;;;;;7.13;6.45;;;15.10;61.00;;;;;;1478028;40;20330;-59
2021/05/27 02:35:39;;;;;;;9.25;7.18;;;15.10;61.20;;;;;;1479112;40;20037;-59
2021/05/27 02:37:01;;;;;;;8.35;7.18;;;15.10;61.10;;;;;;1479874;40;20032;-59
2021/05/27 02:38:22;;;;;;;7.60;6.90;;;15.10;61.20;;;;;;1481343;40;20020;-59
2021/05/27 02:39:43;;;;;;;8.20;6.75;;;15.10;61.40;;;;;;1478598;40;20036;-59
2021/05/27 02:41:05;;;;;;;8.23;7.00;;;15.10;61.50;;;;;;1480388;40;20040;-59
2021/05/27 02:42:25;;;;;;;8.75;7.32;;;15.10;61.60;;;;;;1478904;40;20025;-59
2021/05/27 02:43:46;;;;;;;8.23;7.38;;;15.10;61.60;;;;;;1479541;40;20039;-59
2021/05/27 02:45:08;;;;;;;9.85;7.65;;;15.10;61.70;;;;;;1480682;40;20984;-59
2021/05/27 02:46:29;;;;;;;8.13;7.18;;;15.10;61.80;;;;;;1479416;40;20041;-59
2021/05/27 02:47:50;;;;;;;8.18;7.30;;;15.10;61.90;;;;;;1479340;40;20064;-59
2021/05/27 02:49:11;;;;;;;10.30;7.75;;;15.10;62.00;;;;;;1478746;40;20105;-59
2021/05/27 02:50:32;;;;;;;12.10;8.27;;;15.10;62.10;;;;;;1479890;40;20025;-59
2021/05/27 02:51:53;;;;;;;9.07;8.18;;;15.10;62.10;;;;;;1479242;40;20336;-59
2021/05/27 02:53:13;;;;;;;9.00;8.00;;;15.00;61.90;;;;;;1480992;40;20025;-59
2021/05/27 02:54:34;;;;;;;8.68;7.82;;;15.10;62.20;;;;;;1480412;40;20040;-59
2021/05/27 02:55:55;;;;;;;10.32;7.70;;;15.10;62.30;;;;;;1478830;40;20025;-58
2021/05/27 02:57:16;;;;;;;9.80;8.20;;;15.00;62.30;;;;;;1480896;40;20242;-59
2021/05/27 02:58:37;;;;;;;10.98;7.93;;;15.00;62.30;;;;;;1479602;40;20040;-59
2021/05/27 02:59:58;;;;;;;8.45;7.57;;;15.00;62.40;;;;;;1478017;40;20041;-59
2021/05/27 03:01:19;;;;;;;7.85;7.13;;;15.00;62.50;;;;;;1481211;40;20013;-59
2021/05/27 03:02:39;;;;;;;8.15;7.35;;;15.00;62.50;;;;;;1477970;40;20049;-59
2021/05/27 03:04:00;;;;;;;7.97;7.15;;;15.00;62.50;;;;;;1480109;40;20292;-59
2021/05/27 03:05:21;;;;;;;8.60;7.72;;;15.00;62.50;;;;;;1479112;40;20453;-59
2021/05/27 03:06:42;;;;;;;8.30;7.50;;;15.00;62.60;;;;;;1481949;40;20126;-59
2021/05/27 03:08:04;;;;;;;9.20;7.10;;;15.00;62.60;;;;;;1480028;40;20083;-59
2021/05/27 03:09:25;;;;;;;8.52;7.18;;;15.00;62.60;;;;;;1478871;40;20373;-59
2021/05/27 03:10:45;;;;;;;8.75;7.32;;;15.00;62.60;;;;;;1480525;40;20037;-59
2021/05/27 03:12:06;;;;;;;7.55;6.85;;;15.00;62.60;;;;;;1480215;40;20037;-59
2021/05/27 03:13:27;;;;;;;8.80;6.53;;;15.00;62.70;;;;;;1477662;40;20029;-59
2021/05/27 03:14:48;;;;;;;7.45;6.72;;;15.00;62.60;;;;;;1481318;40;20032;-59
2021/05/27 03:16:09;;;;;;;9.55;7.78;;;15.00;62.60;;;;;;1480609;40;20265;-58
2021/05/27 03:17:30;;;;;;;8.88;7.28;;;15.00;62.60;;;;;;1479769;40;20025;-59
2021/05/27 03:18:51;;;;;;;8.13;7.28;;;15.00;62.60;;;;;;1478813;40;20281;-59
2021/05/27 03:20:13;;;;;;;7.68;6.88;;;15.00;62.60;;;;;;1480575;40;20032;-59
2021/05/27 03:21:34;;;;;;;7.88;6.65;;;15.00;62.60;;;;;;1480074;40;20091;-59
2021/05/27 03:22:55;;;;;;;8.18;6.10;;;15.00;62.50;;;;;;1477894;40;20053;-59
2021/05/27 03:24:16;;;;;;;9.10;6.72;;;15.00;62.50;;;;;;1480222;40;20024;-59
2021/05/27 03:25:37;;;;;;;6.63;5.55;;;15.00;62.50;;;;;;1478837;40;20319;-59
2021/05/27 03:26:58;;;;;;;8.85;6.15;;;15.00;62.50;;;;;;1481349;40;20037;-59
2021/05/27 03:28:19;;;;;;;7.63;6.15;;;15.00;62.50;;;;;;1481037;40;20083;-59
2021/05/27 03:29:40;;;;;;;6.40;5.80;;;15.00;62.50;;;;;;1478944;40;20321;-59
2021/05/27 03:31:01;;;;;;;8.35;6.32;;;15.00;62.50;;;;;;1478917;40;20486;-59
2021/05/27 03:32:22;;;;;;;7.57;5.57;;;15.00;62.40;;;;;;1477520;40;20098;-59
2021/05/27 03:33:42;;;;;;;7.72;5.68;;;15.00;62.50;;;;;;1480096;40;20033;-59
2021/05/27 03:35:04;;;;;;;7.43;5.70;;;15.00;62.40;;;;;;1480565;40;20024;-59
2021/05/27 03:36:25;;;;;;;7.25;5.38;;;15.00;62.20;;;;;;1481012;40;20312;-59
2021/05/27 03:37:46;;;;;;;7.63;5.35;;;15.00;62.20;;;;;;1480095;40;20065;-59
2021/05/27 03:39:06;;;;;;;9.57;5.88;;;15.00;62.20;;;;;;1479425;40;20533;-59
2021/05/27 03:40:27;;;;;;;8.20;6.13;;;15.00;62.10;;;;;;1480530;40;20081;-59
2021/05/27 03:41:48;;;;;;;7.50;5.55;;;15.00;62.10;;;;;;1481403;40;20125;-59
2021/05/27 03:43:09;;;;;;;10.65;6.30;;;15.00;62.10;;;;;;1479981;40;20379;-59
2021/05/27 03:44:30;;;;;;;9.75;6.13;;;15.00;62.00;;;;;;1477357;40;20362;-60
2021/05/27 03:45:51;;;;;;;8.57;5.90;;;15.00;62.00;;;;;;1479847;40;20057;-59
2021/05/27 03:47:12;;;;;;;8.10;5.40;;;15.00;61.90;;;;;;1478600;40;20029;-59
2021/05/27 03:48:33;;;;;;;6.80;5.90;;;15.00;61.90;;;;;;1478954;40;20055;-59
2021/05/27 03:49:54;;;;;;;11.00;6.22;;;15.00;62.00;;;;;;1479816;40;20033;-59
2021/05/27 03:51:15;;;;;;;9.60;6.03;;;15.00;61.90;;;;;;1480510;40;20690;-59
2021/05/27 03:52:37;;;;;;;9.40;5.90;;;15.00;61.90;;;;;;1480419;40;20451;-59
2021/05/27 03:53:58;;;;;;;10.07;6.13;;;15.00;62.00;;;;;;1479179;40;20070;-59
2021/05/27 03:55:20;;;;;;;8.63;5.47;;;15.00;62.00;;;;;;1478770;40;20450;-60
2021/05/27 03:56:41;;;;;;;8.00;5.85;;;15.00;62.10;;;;;;1479881;40;20040;-59
2021/05/27 04:00:40;;;;;;;9.95;6.25;;;15.00;62.10;;;;;;1480379;40;20039;-59
2021/05/27 04:01:23;;;;;;;7.65;5.50;;;15.00;62.00;;;;;;1477963;40;20126;-59
2021/05/27 04:02:46;;;;;;;10.10;5.72;;;15.00;61.90;;;;;;1480006;40;20033;-59
2021/05/27 04:07:27;;;;;;;9.50;5.63;;;15.00;61.90;;;;;;1478365;40;20130;-59
2021/05/27 04:08:47;;;;;;;6.68;5.20;;;15.00;62.50;;;;;;1478669;40;20421;-59
2021/05/27 04:10:09;;;;;;;7.93;5.18;;;15.00;61.70;;;;;;1480265;40;20084;-59
2021/05/27 04:11:30;;;;;;;7.18;5.70;;;15.00;61.70;;;;;;1481091;40;20076;-59
2021/05/27 04:12:51;;;;;;;9.48;5.15;;;15.00;61.70;;;;;;1478983;40;20025;-59
2021/05/27 04:14:12;;;;;;;6.57;5.15;;;15.00;61.60;;;;;;1478873;40;20669;-59
2021/05/27 04:15:37;;;;;;;6.32;5.13;;;15.00;61.60;;;;;;1479003;40;20029;-59
2021/05/27 04:16:58;;;;;;;9.57;5.40;;;15.00;61.60;;;;;;1478888;40;20032;-59
2021/05/27 04:18:20;;;;;;;10.60;5.78;;;15.00;61.50;;;;;;1482270;40;20049;-59
2021/05/27 04:19:40;;;;;;;7.50;5.25;;;15.00;61.50;;;;;;1480555;40;20104;-59
2021/05/27 04:21:01;;;;;;;10.32;5.80;;;14.90;61.50;;;;;;1479640;40;20068;-59
2021/05/27 04:22:22;;;;;;;9.30;5.63;;;15.00;61.50;;;;;;1480337;40;20031;-59
2021/05/27 04:23:43;;;;;;;9.48;5.90;;;15.00;61.50;;;;;;1480481;40;20380;-59
2021/05/27 04:25:04;;;;;;;8.93;5.55;;;14.90;61.50;;;;;;1480905;40;20036;-59
2021/05/27 04:26:25;;;;;;;7.82;6.00;;;14.90;61.50;;;;;;1479450;40;20390;-59
2021/05/27 04:27:47;;;;;;;8.18;6.03;;;14.90;61.50;;;;;;1481682;40;20035;-59
2021/05/27 04:29:07;;;;;;;7.90;5.43;;;14.90;61.60;;;;;;1479455;40;20028;-59
2021/05/27 04:30:29;;;;;;;7.95;6.32;;;14.90;61.60;;;;;;1479844;40;20328;-59
2021/05/27 04:31:50;;;;;;;10.40;6.00;;;14.90;61.70;;;;;;1479886;40;20389;-59
2021/05/27 04:33:11;;;;;;;11.65;6.10;;;14.90;61.70;;;;;;1480456;40;20017;-59
2021/05/27 04:34:32;;;;;;;12.57;5.80;;;14.90;61.80;;;;;;1480016;40;20072;-59
2021/05/27 04:35:53;;;;;;;9.35;6.25;;;14.90;61.70;;;;;;1478402;40;20127;-59
2021/05/27 04:37:14;;;;;;;9.63;5.85;;;14.90;61.80;;;;;;1479874;40;20033;-59
2021/05/27 04:38:35;;;;;;;10.95;5.95;;;14.90;61.90;;;;;;1479945;40;20246;-59
2021/05/27 04:39:56;;;;;;;9.75;6.20;;;14.90;62.10;;;;;;1479702;40;20370;-59
2021/05/27 04:41:18;;;;;;;7.32;5.88;;;14.90;62.10;;;;;;1480752;40;20036;-59
2021/05/27 04:42:39;;;;;;;10.13;6.43;;;14.90;62.30;;;;;;1480164;40;20105;-59
2021/05/27 04:43:59;;;;;;;11.73;6.80;;;14.90;62.30;;;;;;1479464;40;20130;-59
2021/05/27 04:45:21;;;;;;;10.05;6.35;;;14.90;62.40;;;;;;1481507;40;20368;-59
2021/05/27 04:46:42;;;;;;;14.98;7.50;;;14.90;62.50;;;;;;1479111;40;20029;-59
2021/05/27 04:48:04;;;;;;;12.45;6.40;;;14.90;63.30;;;;;;1480117;40;20060;-59
2021/05/27 04:49:25;;;;;;;12.40;7.00;;;14.90;62.60;;;;;;1477866;40;20271;-59
2021/05/27 04:50:49;;;;;;;10.05;6.72;;;14.90;62.70;;;;;;1480023;40;20029;-59
2021/05/27 04:52:10;;;;;;;11.93;7.43;;;14.90;62.90;;;;;;1481576;40;20040;-60
2021/05/27 04:53:31;;;;;;;9.93;6.32;;;14.90;62.90;;;;;;1479955;40;20036;-60
2021/05/27 04:54:52;;;;;;;10.85;7.32;;;14.80;62.80;;;;;;1481121;40;20135;-59
2021/05/27 04:56:14;;;;;;;8.85;6.95;;;14.80;63.00;;;;;;1480971;40;20101;-59
2021/05/27 04:57:35;;;;;;;11.88;6.88;;;14.80;63.20;;;;;;1481455;40;20079;-59
2021/05/27 04:58:56;;;;;;;10.70;6.93;;;14.80;63.30;;;;;;1478173;40;20135;-60
2021/05/27 05:00:20;;;;;;;13.57;7.15;;;14.80;63.50;;;;;;1479478;40;20045;-60
2021/05/27 05:01:41;;;;;;;13.13;7.22;;;14.80;63.60;;;;;;1479841;40;20039;-59
2021/05/27 05:03:03;;;;;;;10.68;7.13;;;14.80;63.60;;;;;;1479469;40;20407;-59
2021/05/27 05:04:24;;;;;;;12.23;7.70;;;14.80;63.70;;;;;;1478914;40;20037;-59
2021/05/27 05:05:45;;;;;;;9.82;6.93;;;14.80;63.80;;;;;;1479338;40;20033;-59
2021/05/27 05:07:06;;;;;;;12.48;7.25;;;14.80;63.80;;;;;;1481356;40;20137;-59
2021/05/27 05:08:27;;;;;;;10.77;7.45;;;14.80;63.80;;;;;;1480444;40;20032;-60
2021/05/27 05:09:48;;;;;;;11.40;7.28;;;14.80;63.90;;;;;;1478558;40;20040;-59
2021/05/27 05:11:08;;;;;;;10.18;7.18;;;14.80;64.00;;;;;;1479308;40;20043;-59
2021/05/27 05:12:29;;;;;;;9.93;7.13;;;14.80;64.10;;;;;;1478938;40;20032;-59
2021/05/27 05:13:50;;;;;;;11.68;7.38;;;14.70;64.20;;;;;;1478751;40;20044;-59
2021/05/27 05:15:28;;;;;;;12.82;8.40;;;14.70;64.20;;;;;;1480548;40;20063;-59
2021/05/27 05:16:49;;;;;;;11.65;7.68;;;14.70;64.50;;;;;;1481173;40;20040;-59
2021/05/27 05:18:13;;;;;;;11.15;7.75;;;14.70;64.40;;;;;;1478394;40;20040;-59
2021/05/27 05:19:34;;;;;;;11.02;7.25;;;14.70;64.60;;;;;;1479901;40;20273;-59
2021/05/27 05:20:54;;;;;;;10.55;7.53;;;14.70;64.50;;;;;;1478120;40;20037;-59
2021/05/27 05:22:15;;;;;;;14.57;7.95;;;14.70;64.50;;;;;;1481002;40;20061;-59
2021/05/27 05:23:36;;;;;;;12.13;7.65;;;14.60;64.50;;;;;;1478954;40;20378;-59
2021/05/27 05:24:57;;;;;;;13.73;8.27;;;14.60;64.50;;;;;;1481676;40;20040;-59
2021/05/27 05:26:18;;;;;;;13.30;8.60;;;14.60;64.80;;;;;;1478610;40;20028;-60
2021/05/27 05:27:39;;;;;;;11.95;8.02;;;14.60;64.80;;;;;;1480041;40;20049;-59
2021/05/27 05:29:01;;;;;;;13.10;8.07;;;14.60;64.90;;;;;;1479930;40;20531;-59
2021/05/27 05:30:24;;;;;;;13.48;7.90;;;14.60;65.00;;;;;;1479310;40;20129;-60
2021/05/27 05:31:45;;;;;;;11.57;7.20;;;14.60;65.10;;;;;;1478436;40;20045;-59
2021/05/27 05:33:06;;;;;;;10.95;7.72;;;14.60;65.20;;;;;;1477235;40;20061;-59
2021/05/27 05:34:27;;;;;;;12.27;7.47;;;14.60;65.30;;;;;;1476689;40;20029;-59
2021/05/27 05:35:48;;;;;;;11.55;8.10;;;14.60;65.40;;;;;;1477936;40;20033;-59
2021/05/27 05:37:09;;;;;;;11.95;7.78;;;14.60;65.60;;;;;;1480084;40;20021;-59
2021/05/27 05:38:30;;;;;;;12.35;8.15;;;14.60;65.60;;;;;;1478964;40;20439;-59
2021/05/27 05:39:52;;;;;;;12.38;7.80;;;14.60;65.60;;;;;;1481362;40;20041;-59
2021/05/27 05:41:13;;;;;;;13.85;8.20;;;14.60;65.60;;;;;;1480481;40;20081;-59
2021/05/27 05:42:34;;;;;;;14.27;8.43;;;14.50;65.70;;;;;;1477159;40;20373;-59
2021/05/27 05:43:55;;;;;;;19.17;9.43;;;14.50;65.70;;;;;;1477491;40;20029;-59
2021/05/27 05:45:17;;;;;;;11.52;7.60;;;14.50;65.90;;;;;;1477348;40;20047;-59
2021/05/27 05:46:38;;;;;;;9.70;7.13;;;14.60;66.00;;;;;;1479982;40;20410;-60
2021/05/27 05:48:00;;;;;;;10.57;8.05;;;14.60;65.90;;;;;;1480009;40;20047;-59
2021/05/27 05:49:21;;;;;;;10.73;7.93;;;14.50;65.80;;;;;;1476599;40;20301;-60
2021/05/27 05:50:45;;;;;;;11.13;7.88;;;14.60;66.00;;;;;;1478693;40;20122;-59
2021/05/27 05:52:06;;;;;;;13.48;7.90;;;14.60;66.10;;;;;;1480968;40;20036;-59
2021/05/27 05:53:27;;;;;;;13.77;8.25;;;14.60;66.10;;;;;;1479553;40;20332;-59
2021/05/27 05:54:48;;;;;;;10.48;7.78;;;14.60;66.20;;;;;;1481409;40;20092;-60
2021/05/27 05:56:09;;;;;;;11.52;8.27;;;14.60;66.60;;;;;;1480649;40;20032;-59
2021/05/27 05:57:30;;;;;;;11.50;8.13;;;14.60;66.20;;;;;;1478036;40;20037;-59
2021/05/27 05:58:51;;;;;;;11.13;7.88;;;14.60;66.30;;;;;;1478526;40;20044;-59
2021/05/27 06:00:13;;;;;;;11.27;8.07;;;14.60;66.20;;;;;;1481440;40;20175;-59
2021/05/27 06:01:33;;;;;;;9.65;7.45;;;14.60;66.10;;;;;;1478621;40;20118;-59
2021/05/27 06:02:54;;;;;;;9.70;7.68;;;14.60;66.20;;;;;;1478370;40;20322;-60
2021/05/27 06:04:15;;;;;;;11.25;7.57;;;14.60;66.00;;;;;;1480872;40;20308;-60
2021/05/27 06:05:36;;;;;;;10.20;6.72;;;14.60;65.90;;;;;;1478398;40;20344;-59
2021/05/27 06:06:58;;;;;;;13.40;7.93;;;14.60;65.90;;;;;;1478275;40;20052;-59
2021/05/27 06:08:19;;;;;;;10.82;6.72;;;14.60;65.90;;;;;;1480657;40;20035;-60
2021/05/27 06:09:39;;;;;;;12.77;7.82;;;14.60;65.80;;;;;;1479581;40;20045;-59
2021/05/27 06:11:00;;;;;;;11.57;6.63;;;14.60;65.80;;;;;;1478161;40;20101;-59
2021/05/27 06:12:21;;;;;;;13.85;7.53;;;14.60;65.90;;;;;;1477467;40;20049;-59
2021/05/27 06:13:42;;;;;;;15.27;7.60;;;14.60;65.80;;;;;;1477344;40;20025;-59
2021/05/27 06:15:04;;;;;;;11.07;7.30;;;14.60;65.90;;;;;;1480562;40;20032;-59
2021/05/27 06:16:25;;;;;;;12.02;6.88;;;14.60;65.90;;;;;;1480847;40;20021;-59
2021/05/27 06:17:46;;;;;;;11.02;7.13;;;14.60;66.00;;;;;;1478810;40;20033;-59
2021/05/27 06:19:07;;;;;;;11.98;7.85;;;14.60;66.00;;;;;;1477509;40;20137;-59
2021/05/27 06:20:29;;;;;;;11.70;7.40;;;14.60;66.00;;;;;;1479789;40;20036;-59
2021/05/27 06:21:50;;;;;;;13.35;7.90;;;14.60;66.00;;;;;;1479986;40;20358;-59
2021/05/27 06:23:11;;;;;;;9.27;6.53;;;14.60;66.00;;;;;;1479515;40;20048;-59
2021/05/27 06:24:32;;;;;;;12.48;7.13;;;14.60;66.00;;;;;;1478571;40;20033;-59
2021/05/27 06:25:53;;;;;;;10.40;7.03;;;14.60;66.00;;;;;;1479972;40;20028;-59
2021/05/27 06:27:14;;;;;;;13.55;7.35;;;14.60;66.00;;;;;;1479470;40;20272;-59
2021/05/27 06:28:34;;;;;;;9.73;6.57;;;14.60;66.00;;;;;;1480115;40;20122;-58
2021/05/27 06:29:55;;;;;;;11.68;6.32;;;14.50;65.80;;;;;;1479731;40;20333;-58
2021/05/27 06:31:16;;;;;;;14.02;6.50;;;14.60;66.30;;;;;;1479121;40;20033;-59
2021/05/27 06:32:37;;;;;;;9.57;6.10;;;14.60;65.80;;;;;;1479261;40;20033;-59
2021/05/27 06:33:58;;;;;;;11.65;6.63;;;14.60;65.70;;;;;;1476746;40;20040;-59
2021/05/27 06:35:20;;;;;;;9.18;6.40;;;14.60;65.70;;;;;;1480015;40;20029;-60
2021/05/27 06:36:40;;;;;;;13.85;6.70;;;14.60;65.60;;;;;;1478244;40;20056;-59
2021/05/27 06:38:02;;;;;;;11.30;6.65;;;14.60;65.60;;;;;;1479278;40;20377;-59
2021/05/27 06:39:24;;;;;;;11.80;5.78;;;14.60;65.60;;;;;;1479632;40;20118;-59
2021/05/27 06:40:45;;;;;;;8.40;5.35;;;14.60;65.60;;;;;;1478983;40;20285;-59
2021/05/27 06:42:06;;;;;;;11.23;5.80;;;14.60;65.40;;;;;;1477282;40;20037;-60
2021/05/27 06:43:27;;;;;;;11.70;5.47;;;14.60;65.60;;;;;;1479739;40;20037;-59
2021/05/27 06:44:48;;;;;;;10.88;5.88;;;14.60;65.60;;;;;;1478563;40;20370;-59
2021/05/27 06:46:09;;;;;;;8.77;5.30;;;14.60;65.70;;;;;;1479927;40;20036;-59
2021/05/27 06:47:30;;;;;;;6.97;5.00;;;14.60;65.70;;;;;;1480627;40;20036;-59
2021/05/27 06:48:51;;;;;;;9.18;5.30;;;14.60;65.70;;;;;;1477480;40;20110;-59
2021/05/27 06:50:13;;;;;;;7.85;5.50;;;14.60;65.60;;;;;;1480693;40;20138;-59
2021/05/27 06:51:34;;;;;;;7.00;5.30;;;14.60;65.70;;;;;;1480390;40;20032;-59
2021/05/27 06:52:55;;;;;;;7.82;5.10;;;14.60;65.70;;;;;;1480498;40;20338;-59
2021/05/27 06:54:16;;;;;;;8.90;5.18;;;14.60;65.60;;;;;;1477508;40;20025;-59
2021/05/27 06:55:39;;;;;;;11.35;5.35;;;14.60;65.60;;;;;;1478164;40;20072;-59
2021/05/27 06:57:00;;;;;;;9.85;5.05;;;14.60;65.70;;;;;;1478816;40;20037;-60
2021/05/27 06:58:20;;;;;;;7.47;4.85;;;14.60;65.70;;;;;;1478357;40;20035;-59
2021/05/27 06:59:41;;;;;;;8.43;5.38;;;14.60;65.80;;;;;;1477397;40;20065;-59
2021/05/27 07:01:02;;;;;;;8.45;5.78;;;14.60;65.70;;;;;;1479047;40;20360;-60
2021/05/27 07:02:23;;;;;;;8.60;5.50;;;14.60;66.40;;;;;;1475915;40;20029;-59
2021/05/27 07:03:44;;;;;;;8.55;5.75;;;14.60;65.70;;;;;;1476324;40;20029;-59
2021/05/27 07:05:05;;;;;;;10.88;5.57;;;14.60;65.80;;;;;;1480636;40;20036;-59
2021/05/27 07:06:26;;;;;;;9.38;5.47;;;14.60;65.80;;;;;;1480467;40;20589;-59